createdAt,value
2018-12-13T00:00:25.813Z,0.33
2018-12-13T00:01:55.701Z,0.31
2018-12-13T00:03:25.570Z,0.27
2018-12-13T00:04:55.442Z,0.22
2018-12-13T00:06:25.319Z,0.17
2018-12-13T00:07:55.220Z,0.12
2018-12-13T00:09:25.096Z,0.09
2018-12-13T00:10:55.178Z,0.04
2018-12-13T00:12:25.075Z,0.01
2018-12-13T00:13:55.151Z,-0.06
2018-12-13T00:15:29.638Z,-0.10
2018-12-13T00:16:59.597Z,-0.23
2018-12-13T00:18:29.471Z,-0.24
2018-12-13T00:19:59.344Z,-0.26
2018-12-13T00:21:29.326Z,-0.25
2018-12-13T00:22:59.214Z,-0.28
2018-12-13T00:24:29.102Z,-0.32
2018-12-13T00:25:58.992Z,-0.34
2018-12-13T00:27:28.894Z,-0.51
2018-12-13T00:28:58.951Z,-0.50
2018-12-13T00:30:36.271Z,-0.52
2018-12-13T00:32:06.296Z,-0.44
2018-12-13T00:33:36.327Z,-0.45
2018-12-13T00:35:06.518Z,-0.38
2018-12-13T00:36:39.686Z,-0.36
2018-12-13T00:38:08.452Z,-0.40
2018-12-13T00:39:38.459Z,-0.37
2018-12-13T00:41:08.336Z,-0.36
2018-12-13T00:42:38.399Z,-0.32
2018-12-13T00:44:08.376Z,-0.26
2018-12-13T00:45:38.374Z,-0.20
2018-12-13T00:47:08.258Z,-0.23
2018-12-13T00:48:38.311Z,-0.18
2018-12-13T00:50:08.447Z,-0.29
2018-12-13T00:51:38.606Z,-0.24
2018-12-13T00:53:08.517Z,-0.24
2018-12-13T00:54:38.606Z,-0.25
2018-12-13T00:56:08.476Z,-0.22
2018-12-13T00:57:38.374Z,-0.19
2018-12-13T01:05:17.075Z,-0.51
2018-12-13T01:06:47.071Z,-0.51
2018-12-13T01:08:17.110Z,-0.46
2018-12-13T01:09:46.982Z,-0.42
2018-12-13T01:11:16.862Z,-0.37
2018-12-13T01:12:46.755Z,-0.33
2018-12-13T01:14:16.616Z,-0.30
2018-12-13T01:15:46.655Z,-0.27
2018-12-13T01:17:16.856Z,-0.28
2018-12-13T01:18:46.740Z,-0.25
2018-12-13T01:20:16.617Z,-0.23
2018-12-13T01:21:46.500Z,-0.17
2018-12-13T01:23:16.399Z,-0.26
2018-12-13T01:24:46.283Z,-0.28
2018-12-13T01:26:16.183Z,-0.22
2018-12-13T01:27:46.076Z,-0.16
2018-12-13T01:29:16.084Z,-0.18
2018-12-13T01:30:46.108Z,-0.14
2018-12-13T01:32:16.022Z,-0.09
2018-12-13T01:33:45.895Z,-0.07
2018-12-13T01:35:15.795Z,-0.08
2018-12-13T01:36:45.691Z,-0.01
2018-12-13T01:38:15.604Z,0.07
2018-12-13T01:39:45.487Z,0.11
2018-12-13T01:41:15.363Z,0.10
2018-12-13T01:42:45.263Z,0.16
2018-12-13T01:44:15.130Z,0.16
2018-12-13T01:45:44.995Z,0.16
2018-12-13T01:47:14.887Z,0.23
2018-12-13T01:48:44.770Z,0.29
2018-12-13T01:50:14.652Z,0.30
2018-12-13T01:51:44.620Z,0.34
2018-12-13T01:53:14.530Z,0.35
2018-12-13T01:54:44.398Z,0.30
2018-12-13T01:56:14.266Z,0.36
2018-12-13T01:57:44.151Z,0.39
2018-12-13T01:59:14.027Z,0.43
2018-12-13T02:00:44.039Z,0.43
2018-12-13T02:02:13.906Z,0.38
2018-12-13T02:03:43.906Z,0.34
2018-12-13T02:05:13.779Z,0.38
2018-12-13T02:06:43.646Z,0.45
2018-12-13T02:08:13.693Z,0.52
2018-12-13T02:09:43.698Z,0.49
2018-12-13T02:11:13.564Z,0.51
2018-12-13T02:12:43.450Z,0.48
2018-12-13T02:14:13.322Z,0.46
2018-12-13T02:15:43.375Z,0.42
2018-12-13T02:17:13.238Z,0.42
2018-12-13T02:18:43.278Z,0.45
2018-12-13T02:20:13.315Z,0.46
2018-12-13T02:21:43.328Z,0.45
2018-12-13T02:23:13.199Z,0.41
2018-12-13T02:24:43.079Z,0.35
2018-12-13T02:26:12.954Z,0.28
2018-12-13T02:27:42.864Z,0.27
2018-12-13T02:29:13.077Z,0.31
2018-12-13T02:30:43.151Z,0.22
2018-12-13T02:32:13.067Z,0.18
2018-12-13T02:33:42.944Z,0.22
2018-12-13T02:35:12.811Z,0.20
2018-12-13T02:36:42.771Z,0.16
2018-12-13T02:38:12.894Z,0.08
2018-12-13T02:39:43.077Z,0.07
2018-12-13T02:41:13.074Z,0.02
2018-12-13T02:42:42.980Z,0.02
2018-12-13T02:44:12.883Z,-0.03
2018-12-13T02:45:42.791Z,-0.03
2018-12-13T02:47:12.707Z,-0.05
2018-12-13T02:48:42.630Z,-0.01
2018-12-13T02:50:12.762Z,-0.05
2018-12-13T02:51:42.650Z,-0.01
2018-12-13T02:53:12.563Z,-0.05
2018-12-13T02:54:42.615Z,-0.09
2018-12-13T02:56:12.538Z,-0.11
2018-12-13T02:57:42.484Z,-0.14
2018-12-13T02:59:12.687Z,-0.07
2018-12-13T03:00:42.764Z,-0.06
2018-12-13T03:02:12.805Z,-0.06
2018-12-13T03:03:42.697Z,-0.05
2018-12-13T03:05:13.314Z,-0.08
2018-12-13T03:06:43.350Z,-0.13
2018-12-13T03:10:09.646Z,-0.23
2018-12-13T03:11:39.601Z,-0.20
2018-12-13T03:13:09.768Z,-0.24
2018-12-13T03:14:39.775Z,-0.30
2018-12-13T03:16:09.688Z,-0.34
2018-12-13T03:17:39.602Z,-0.32
2018-12-13T03:19:09.644Z,-0.26
2018-12-13T03:20:39.758Z,-0.31
2018-12-13T03:22:09.668Z,-0.32
2018-12-13T03:23:39.759Z,-0.41
2018-12-13T03:25:09.667Z,-0.41
2018-12-13T03:26:39.563Z,-0.50
2018-12-13T03:28:09.503Z,-0.49
2018-12-13T03:29:39.595Z,-0.50
2018-12-13T03:31:09.489Z,-0.59
2018-12-13T03:32:39.505Z,-0.64
2018-12-13T03:34:09.419Z,-0.67
2018-12-13T03:35:39.480Z,-0.73
2018-12-13T03:37:09.373Z,-0.76
2018-12-13T03:38:39.283Z,-0.74
2018-12-13T03:40:09.353Z,-0.87
2018-12-13T03:41:39.381Z,-0.97
2018-12-13T03:43:09.251Z,-0.91
2018-12-13T03:44:39.247Z,-0.88
2018-12-13T03:46:09.282Z,-0.93
2018-12-13T03:47:39.174Z,-0.88
2018-12-13T03:49:09.071Z,-0.91
2018-12-13T03:50:38.961Z,-0.93
2018-12-13T03:52:08.963Z,-0.92
2018-12-13T03:53:38.882Z,-0.89
2018-12-13T03:55:08.827Z,-0.93
2018-12-13T03:56:38.822Z,-0.96
2018-12-13T03:58:08.755Z,-1.06
2018-12-13T03:59:38.761Z,-1.16
2018-12-13T04:01:08.790Z,-1.09
2018-12-13T04:02:38.663Z,-1.01
2018-12-13T04:04:08.545Z,-0.99
2018-12-13T04:05:38.534Z,-0.94
2018-12-13T04:07:08.618Z,-0.90
2018-12-13T04:08:38.516Z,-0.89
2018-12-13T04:10:08.424Z,-0.95
2018-12-13T04:11:38.318Z,-0.93
2018-12-13T04:13:08.202Z,-0.99
2018-12-13T04:14:38.094Z,-1.03
2018-12-13T04:16:08.251Z,-1.00
2018-12-13T04:17:38.135Z,-0.97
2018-12-13T04:19:08.175Z,-1.04
2018-12-13T04:20:38.091Z,-1.09
2018-12-13T04:22:07.979Z,-1.01
2018-12-13T04:23:39.820Z,-1.09
2018-12-13T04:25:09.723Z,-1.15
2018-12-13T04:26:39.591Z,-1.18
2018-12-13T04:28:09.491Z,-1.18
2018-12-13T04:29:39.403Z,-1.16
2018-12-13T04:31:09.306Z,-1.22
2018-12-13T04:32:39.238Z,-1.23
2018-12-13T04:34:09.238Z,-1.21
2018-12-13T04:35:39.130Z,-1.24
2018-12-13T04:37:09.035Z,-1.23
2018-12-13T04:38:38.948Z,-1.25
2018-12-13T04:40:09.057Z,-1.31
2018-12-13T04:41:38.947Z,-1.29
2018-12-13T04:43:08.849Z,-1.31
2018-12-13T04:44:38.779Z,-1.33
2018-12-13T04:46:08.686Z,-1.27
2018-12-13T04:47:38.643Z,-1.34
2018-12-13T04:49:08.780Z,-1.34
2018-12-13T04:50:38.689Z,-1.37
2018-12-13T04:52:08.786Z,-1.43
2018-12-13T04:53:38.794Z,-1.40
2018-12-13T04:55:08.730Z,-1.37
2018-12-13T04:56:38.624Z,-1.43
2018-12-13T04:58:08.519Z,-1.39
2018-12-13T04:59:38.426Z,-1.38
2018-12-13T05:01:08.372Z,-1.40
2018-12-13T05:02:38.322Z,-1.49
2018-12-13T05:04:08.264Z,-1.45
2018-12-13T05:05:38.187Z,-1.47
2018-12-13T05:07:08.251Z,-1.46
2018-12-13T05:08:38.187Z,-1.42
2018-12-13T05:10:08.377Z,-1.51
2018-12-13T05:11:38.392Z,-1.49
2018-12-13T05:13:08.447Z,-1.52
2018-12-13T05:14:38.479Z,-1.53
2018-12-13T05:16:08.703Z,-1.65
2018-12-13T05:17:38.599Z,-1.63
2018-12-13T05:19:08.531Z,-1.56
2018-12-13T05:20:38.443Z,-1.57
2018-12-13T05:22:08.358Z,-1.60
2018-12-13T05:23:38.276Z,-1.52
2018-12-13T05:25:08.287Z,-1.47
2018-12-13T05:26:38.198Z,-1.46
2018-12-13T05:28:08.330Z,-1.41
2018-12-13T05:29:38.254Z,-1.52
2018-12-13T05:31:09.523Z,-1.46
2018-12-13T05:32:39.622Z,-1.41
2018-12-13T05:34:09.780Z,-1.39
2018-12-13T05:35:39.834Z,-1.34
2018-12-13T05:37:10.023Z,-1.26
2018-12-13T05:38:40.114Z,-1.22
2018-12-13T05:40:10.035Z,-1.16
2018-12-13T05:41:40.113Z,-1.15
2018-12-13T05:43:10.015Z,-1.15
2018-12-13T05:44:39.971Z,-1.15
2018-12-13T05:46:09.875Z,-1.06
2018-12-13T05:47:39.899Z,-1.06
2018-12-13T05:49:09.814Z,-0.95
2018-12-13T05:50:39.722Z,-1.02
2018-12-13T05:52:09.650Z,-0.98
2018-12-13T05:53:39.555Z,-0.99
2018-12-13T05:55:09.661Z,-0.95
2018-12-13T05:56:39.663Z,-0.90
2018-12-13T05:58:09.566Z,-0.84
2018-12-13T05:59:39.578Z,-0.81
2018-12-13T06:01:09.894Z,-0.77
2018-12-13T06:02:39.806Z,-0.78
2018-12-13T06:04:09.724Z,-0.87
2018-12-13T06:05:39.647Z,-0.83
2018-12-13T06:07:09.691Z,-0.86
2018-12-13T06:08:39.615Z,-0.90
2018-12-13T06:10:09.535Z,-0.83
2018-12-13T06:11:41.125Z,-0.77
2018-12-13T06:13:11.142Z,-0.76
2018-12-13T06:14:41.104Z,-0.76
2018-12-13T06:16:11.064Z,-0.75
2018-12-13T06:17:41.027Z,-0.78
2018-12-13T06:19:11.003Z,-0.73
2018-12-13T06:20:41.008Z,-0.80
2018-12-13T06:22:11.071Z,-0.85
2018-12-13T06:23:41.066Z,-0.94
2018-12-13T06:25:11.033Z,-0.90
2018-12-13T06:26:41.266Z,-0.91
2018-12-13T06:28:11.175Z,-0.87
2018-12-13T06:29:43.073Z,-0.87
2018-12-13T06:31:13.126Z,-0.88
2018-12-13T06:32:43.139Z,-0.81
2018-12-13T06:34:13.093Z,-0.81
2018-12-13T06:35:43.034Z,-0.88
2018-12-13T06:37:13.002Z,-0.95
2018-12-13T06:38:42.924Z,-0.98
2018-12-13T06:40:15.594Z,-1.00
2018-12-13T06:41:44.720Z,-1.01
2018-12-13T06:43:14.626Z,-0.91
2018-12-13T06:44:44.558Z,-1.01
2018-12-13T06:46:14.610Z,-0.94
2018-12-13T06:47:44.626Z,-0.94
2018-12-13T06:49:14.853Z,-1.03
2018-12-13T06:50:44.766Z,-1.02
2018-12-13T06:52:14.743Z,-1.08
2018-12-13T06:55:41.058Z,-1.03
2018-12-13T06:57:10.985Z,-0.99
2018-12-13T06:58:40.946Z,-1.03
2018-12-13T07:00:10.956Z,-1.02
2018-12-13T07:01:40.984Z,-1.03
2018-12-13T07:03:10.873Z,-1.06
2018-12-13T07:04:40.772Z,-1.11
2018-12-13T07:06:10.802Z,-1.03
2018-12-13T07:07:40.692Z,-0.94
2018-12-13T07:09:10.733Z,-0.92
2018-12-13T07:10:40.871Z,-0.98
2018-12-13T07:12:11.069Z,-0.95
2018-12-13T07:13:41.135Z,-0.97
2018-12-13T07:15:11.227Z,-1.00
2018-12-13T07:16:41.313Z,-0.95
2018-12-13T07:18:11.229Z,-0.94
2018-12-13T07:19:41.449Z,-0.83
2018-12-13T07:21:11.398Z,-0.82
2018-12-13T07:22:41.399Z,-0.83
2018-12-13T07:24:11.567Z,-0.82
2018-12-13T07:25:41.527Z,-0.80
2018-12-13T07:27:11.802Z,-0.81
2018-12-13T07:28:41.897Z,-0.82
2018-12-13T07:30:12.385Z,-0.79
2018-12-13T07:31:42.876Z,-0.81
2018-12-13T07:33:13.858Z,-0.84
2018-12-13T07:34:43.932Z,-0.89
2018-12-13T07:36:13.948Z,-0.94
2018-12-13T07:37:44.183Z,-0.91
2018-12-13T07:39:14.203Z,-0.95
2018-12-13T07:40:44.248Z,-0.96
2018-12-13T07:42:14.368Z,-1.00
2018-12-13T07:43:44.467Z,-1.00
2018-12-13T07:45:14.890Z,-1.13
2018-12-13T07:46:46.381Z,-1.11
2018-12-13T07:48:16.444Z,-1.11
2018-12-13T07:49:46.521Z,-1.15
2018-12-13T07:51:16.656Z,-1.12
2018-12-13T07:52:46.780Z,-1.03
2018-12-13T07:54:16.815Z,-1.00
2018-12-13T07:55:46.850Z,-1.01
2018-12-13T07:57:16.991Z,-0.91
2018-12-13T07:58:47.021Z,-0.89
2018-12-13T08:00:17.024Z,-0.96
2018-12-13T08:01:47.059Z,-0.85
2018-12-13T08:09:06.661Z,-1.01
2018-12-13T08:10:36.850Z,-1.06
2018-12-13T08:12:07.046Z,-1.01
2018-12-13T08:13:37.079Z,-0.97
2018-12-13T08:15:07.477Z,-0.86
2018-12-13T08:16:37.509Z,-0.87
2018-12-13T08:18:07.582Z,-0.77
2018-12-13T08:19:37.716Z,-0.78
2018-12-13T08:21:07.777Z,-0.70
2018-12-13T08:22:37.868Z,-0.67
2018-12-13T08:24:08.171Z,-0.74
2018-12-13T08:25:38.238Z,-0.67
2018-12-13T08:27:08.400Z,-0.56
2018-12-13T08:28:38.436Z,-0.52
2018-12-13T08:30:08.761Z,-0.43
2018-12-13T08:31:38.843Z,-0.37
2018-12-13T08:33:08.863Z,-0.37
2018-12-13T08:34:39.036Z,-0.46
2018-12-13T08:36:10.299Z,-0.44
2018-12-13T08:37:40.425Z,-0.44
2018-12-13T08:39:10.526Z,-0.41
2018-12-13T08:40:40.527Z,-0.39
2018-12-13T08:42:10.650Z,-0.31
2018-12-13T08:43:40.718Z,-0.24
2018-12-13T08:45:11.059Z,-0.25
2018-12-13T08:46:41.141Z,-0.31
2018-12-13T08:48:11.254Z,-0.23
2018-12-13T08:49:41.357Z,-0.25
2018-12-13T08:51:11.426Z,-0.23
2018-12-13T08:52:41.713Z,-0.26
2018-12-13T08:54:11.848Z,-0.24
2018-12-13T08:55:41.952Z,-0.18
2018-12-13T08:57:12.088Z,-0.10
2018-12-13T08:58:43.040Z,-0.08
2018-12-13T09:00:13.094Z,-0.13
2018-12-13T09:01:57.696Z,-0.15
2018-12-13T09:03:27.773Z,-0.26
2018-12-13T09:04:57.896Z,-0.19
2018-12-13T09:06:27.932Z,-0.12
2018-12-13T09:07:58.099Z,-0.07
2018-12-13T09:09:28.167Z,-0.08
2018-12-13T09:10:58.280Z,-0.07
2018-12-13T09:12:28.342Z,-0.11
2018-12-13T09:13:58.503Z,-0.06
2018-12-13T09:15:28.581Z,0.07
2018-12-13T09:16:58.721Z,0.05
2018-12-13T09:18:28.719Z,0.09
2018-12-13T09:20:07.604Z,0.07
2018-12-13T09:21:37.670Z,0.14
2018-12-13T09:23:07.903Z,0.09
2018-12-13T09:24:38.058Z,0.04
2018-12-13T09:26:08.144Z,0.05
2018-12-13T09:27:38.264Z,0.08
2018-12-13T09:29:08.396Z,0.15
2018-12-13T09:30:38.559Z,0.34
2018-12-13T09:32:08.671Z,0.45
2018-12-13T09:33:38.825Z,0.53
2018-12-13T09:35:09.004Z,0.54
2018-12-13T09:36:39.048Z,0.52
2018-12-13T09:38:09.164Z,0.50
2018-12-13T09:39:39.337Z,0.51
2018-12-13T09:41:10.415Z,0.56
2018-12-13T09:42:40.502Z,0.69
2018-12-13T09:44:16.241Z,0.81
2018-12-13T09:45:46.394Z,0.84
2018-12-13T09:47:16.660Z,0.69
2018-12-13T09:48:46.896Z,0.66
2018-12-13T09:50:17.008Z,0.68
2018-12-13T09:51:47.051Z,0.86
2018-12-13T09:53:17.195Z,1.01
2018-12-13T09:54:47.357Z,1.10
2018-12-13T09:56:17.482Z,1.23
2018-12-13T09:57:48.160Z,1.39
2018-12-13T09:59:18.239Z,1.52
2018-12-13T10:00:50.193Z,1.65
2018-12-13T10:02:20.230Z,1.80
2018-12-13T10:03:50.481Z,1.74
2018-12-13T10:05:20.734Z,1.93
2018-12-13T10:06:50.821Z,2.08
2018-12-13T10:08:20.931Z,2.10
2018-12-13T10:09:51.130Z,2.14
2018-12-13T10:11:21.387Z,2.12
2018-12-13T10:12:51.704Z,2.22
2018-12-13T10:14:21.884Z,2.18
2018-12-13T10:15:52.115Z,2.08
2018-12-13T10:17:22.219Z,1.98
2018-12-13T10:18:52.457Z,1.99
2018-12-13T10:21:59.413Z,2.07
2018-12-13T10:23:29.561Z,2.14
2018-12-13T10:24:59.768Z,2.01
2018-12-13T10:26:29.900Z,2.15
2018-12-13T10:28:00.228Z,2.03
2018-12-13T10:29:30.425Z,1.76
2018-12-13T10:31:00.793Z,1.40
2018-12-13T10:32:30.899Z,1.28
2018-12-13T10:34:01.057Z,1.16
2018-12-13T10:35:31.106Z,1.06
2018-12-13T10:37:02.160Z,0.80
2018-12-13T10:38:32.423Z,0.79
2018-12-13T10:40:03.701Z,0.74
2018-12-13T10:41:37.192Z,0.67
2018-12-13T10:43:07.171Z,0.65
2018-12-13T10:44:39.516Z,0.77
2018-12-13T10:46:09.567Z,0.80
2018-12-13T10:47:39.742Z,0.89
2018-12-13T10:49:09.795Z,0.95
2018-12-13T10:50:39.753Z,1.04
2018-12-13T10:52:09.700Z,1.08
2018-12-13T10:53:39.657Z,1.20
2018-12-13T10:55:09.860Z,1.30
2018-12-13T10:56:39.796Z,1.31
2018-12-13T10:58:10.071Z,1.33
2018-12-13T10:59:40.515Z,1.32
2018-12-13T11:01:16.553Z,1.51
2018-12-13T11:03:00.150Z,1.50
2018-12-13T11:04:30.096Z,1.51
2018-12-13T11:06:00.428Z,1.57
2018-12-13T11:07:30.503Z,1.53
2018-12-13T11:09:00.453Z,1.52
2018-12-13T11:10:30.622Z,1.50
2018-12-13T11:12:00.653Z,1.61
2018-12-13T11:13:30.647Z,1.60
2018-12-13T11:15:00.599Z,1.46
2018-12-13T11:16:30.517Z,1.43
2018-12-13T11:18:00.549Z,1.38
2018-12-13T11:19:30.571Z,1.42
2018-12-13T11:21:00.924Z,1.60
2018-12-13T11:22:31.045Z,1.86
2018-12-13T11:24:01.103Z,2.08
2018-12-13T11:25:31.033Z,2.09
2018-12-13T11:27:12.692Z,2.21
2018-12-13T11:29:56.095Z,2.34
2018-12-13T11:31:26.210Z,2.13
2018-12-13T11:32:56.228Z,2.02
2018-12-13T11:34:26.199Z,1.92
2018-12-13T11:35:56.232Z,1.92
2018-12-13T11:37:26.180Z,1.82
2018-12-13T11:38:56.315Z,1.92
2018-12-13T11:40:26.453Z,2.03
2018-12-13T11:41:56.389Z,2.04
2018-12-13T11:43:26.643Z,1.94
2018-12-13T11:44:56.715Z,1.93
2018-12-13T11:46:26.790Z,2.14
2018-12-13T11:48:00.227Z,2.26
2018-12-13T11:49:30.250Z,2.25
2018-12-13T11:51:00.207Z,2.18
2018-12-13T11:52:30.183Z,2.12
2018-12-13T11:54:01.721Z,2.17
2018-12-13T11:55:36.155Z,1.86
2018-12-13T11:57:06.396Z,1.75
2018-12-13T11:58:36.467Z,1.68
2018-12-13T12:00:12.982Z,1.67
2018-12-13T12:01:42.992Z,1.72
2018-12-13T12:07:05.052Z,1.76
2018-12-13T12:08:35.015Z,1.81
2018-12-13T12:10:05.244Z,1.76
2018-12-13T12:11:35.670Z,1.85
2018-12-13T12:13:05.810Z,1.92
2018-12-13T12:14:35.907Z,1.97
2018-12-13T12:16:05.980Z,2.10
2018-12-13T12:17:36.139Z,2.26
2018-12-13T12:19:06.303Z,2.30
2018-12-13T12:20:36.278Z,2.13
2018-12-13T12:22:06.264Z,2.12
2018-12-13T12:23:36.232Z,2.13
2018-12-13T12:25:06.691Z,2.10
2018-12-13T12:26:36.810Z,2.15
2018-12-13T12:28:06.761Z,2.27
2018-12-13T12:29:36.738Z,2.24
2018-12-13T12:31:06.811Z,2.15
2018-12-13T12:32:36.842Z,2.07
2018-12-13T12:34:07.867Z,1.96
2018-12-13T12:35:37.882Z,1.95
2018-12-13T12:37:07.808Z,2.09
2018-12-13T12:38:37.860Z,2.16
2018-12-13T12:40:08.600Z,2.46
2018-12-13T12:41:38.492Z,2.61
2018-12-13T12:43:08.435Z,2.70
2018-12-13T12:44:40.874Z,2.64
2018-12-13T12:46:23.827Z,2.68
2018-12-13T12:47:53.771Z,2.61
2018-12-13T12:49:23.736Z,2.54
2018-12-13T12:50:53.764Z,2.34
2018-12-13T12:52:23.680Z,2.33
2018-12-13T12:53:53.789Z,2.29
2018-12-13T12:55:23.754Z,2.29
2018-12-13T12:56:53.940Z,2.22
2018-12-13T12:58:23.884Z,2.09
2018-12-13T12:59:53.915Z,2.05
2018-12-13T13:01:23.890Z,1.96
2018-12-13T13:02:54.042Z,1.78
2018-12-13T13:04:23.996Z,1.69
2018-12-13T13:05:53.967Z,1.65
2018-12-13T13:07:23.944Z,1.62
2018-12-13T13:08:53.897Z,1.58
2018-12-13T13:10:23.832Z,1.54
2018-12-13T13:11:53.791Z,1.47
2018-12-13T13:13:23.831Z,1.27
2018-12-13T13:14:53.829Z,1.29
2018-12-13T13:16:23.819Z,1.34
2018-12-13T13:17:53.906Z,1.40
2018-12-13T13:19:23.895Z,1.26
2018-12-13T13:20:53.845Z,1.30
2018-12-13T13:22:23.966Z,1.27
2018-12-13T13:23:54.041Z,1.30
2018-12-13T13:25:24.271Z,1.43
2018-12-13T13:26:54.220Z,1.45
2018-12-13T13:28:24.158Z,1.46
2018-12-13T13:29:54.096Z,1.50
2018-12-13T13:31:24.068Z,1.54
2018-12-13T13:32:54.681Z,1.54
2018-12-13T13:36:21.257Z,1.44
2018-12-13T13:37:51.277Z,1.39
2018-12-13T13:39:31.858Z,1.19
2018-12-13T13:41:02.028Z,1.20
2018-12-13T13:42:32.032Z,1.01
2018-12-13T13:44:02.160Z,0.96
2018-12-13T13:45:32.328Z,1.05
2018-12-13T13:47:02.486Z,1.07
2018-12-13T13:48:32.592Z,1.02
2018-12-13T13:50:03.088Z,1.01
2018-12-13T13:51:33.474Z,1.07
2018-12-13T13:53:03.607Z,1.02
2018-12-13T13:54:33.729Z,1.03
2018-12-13T13:56:03.737Z,1.05
2018-12-13T13:57:33.844Z,1.04
2018-12-13T13:59:03.927Z,1.04
2018-12-13T14:00:34.318Z,0.98
2018-12-13T14:02:04.902Z,1.04
2018-12-13T14:03:34.944Z,0.98
2018-12-13T14:05:05.340Z,0.92
2018-12-13T14:06:35.752Z,1.04
2018-12-13T14:08:06.088Z,1.08
2018-12-13T14:09:38.108Z,1.04
2018-12-13T14:11:08.523Z,1.22
2018-12-13T14:12:38.751Z,1.23
2018-12-13T14:14:09.107Z,1.31
2018-12-13T14:15:39.182Z,1.08
2018-12-13T14:17:09.367Z,1.03
2018-12-13T14:18:39.370Z,1.14
2018-12-13T14:20:09.684Z,1.12
2018-12-13T14:21:39.901Z,1.12
2018-12-13T14:23:10.604Z,1.09
2018-12-13T14:24:40.677Z,1.09
2018-12-13T14:26:12.924Z,1.12
2018-12-13T14:27:45.117Z,1.20
2018-12-13T14:29:17.301Z,1.11
2018-12-13T14:30:48.647Z,1.12
2018-12-13T14:32:18.818Z,1.02
2018-12-13T14:33:48.881Z,0.97
2018-12-13T14:35:19.057Z,0.91
2018-12-13T14:36:56.636Z,0.93
2018-12-13T14:38:46.806Z,0.82
2018-12-13T14:40:16.950Z,0.78
2018-12-13T14:43:42.661Z,0.97
2018-12-13T14:45:13.259Z,1.04
2018-12-13T14:46:43.751Z,1.10
2018-12-13T14:48:13.861Z,1.08
2018-12-13T14:49:43.946Z,1.01
2018-12-13T14:51:14.222Z,0.77
2018-12-13T14:52:44.530Z,0.67
2018-12-13T14:56:11.020Z,0.70
2018-12-13T14:57:41.199Z,0.78
2018-12-13T14:59:14.983Z,0.82
2018-12-13T15:00:45.029Z,0.70
2018-12-13T15:02:15.120Z,0.68
2018-12-13T15:03:45.346Z,0.69
2018-12-13T15:05:15.965Z,0.77
2018-12-13T15:06:45.928Z,0.81
2018-12-13T15:08:15.887Z,0.74
2018-12-13T15:09:50.822Z,0.79
2018-12-13T15:11:18.083Z,0.86
2018-12-13T15:12:48.104Z,0.96
2018-12-13T15:14:18.140Z,0.89
2018-12-13T15:15:49.181Z,0.81
2018-12-13T15:17:19.189Z,0.83
2018-12-13T15:18:49.110Z,0.67
2018-12-13T15:20:19.270Z,0.55
2018-12-13T15:21:49.464Z,0.53
2018-12-13T15:23:19.534Z,0.50
2018-12-13T15:24:49.495Z,0.52
2018-12-13T15:26:19.526Z,0.49
2018-12-13T15:27:49.565Z,0.48
2018-12-13T15:29:19.678Z,0.51
2018-12-13T15:30:56.574Z,0.54
2018-12-13T15:32:26.536Z,0.68
2018-12-13T15:33:56.530Z,0.76
2018-12-13T15:35:26.494Z,0.83
2018-12-13T15:36:56.479Z,0.75
2018-12-13T15:38:27.458Z,0.46
2018-12-13T15:39:57.561Z,0.51
2018-12-13T15:41:27.546Z,0.48
2018-12-13T15:42:57.498Z,0.48
2018-12-13T15:44:27.526Z,0.47
2018-12-13T15:45:57.519Z,0.30
2018-12-13T15:47:27.643Z,0.34
2018-12-13T15:48:57.631Z,0.34
2018-12-13T15:50:27.698Z,0.40
2018-12-13T15:51:57.745Z,0.47
2018-12-13T15:53:27.694Z,0.55
2018-12-13T15:54:57.614Z,0.39
2018-12-13T15:56:27.575Z,0.24
2018-12-13T15:57:57.478Z,0.12
2018-12-13T15:59:27.414Z,0.17
2018-12-13T16:00:57.354Z,0.25
2018-12-13T16:02:27.392Z,0.27
2018-12-13T16:03:57.307Z,0.25
2018-12-13T16:05:27.252Z,0.33
2018-12-13T16:06:57.178Z,0.45
2018-12-13T16:08:27.355Z,0.35
2018-12-13T16:10:03.620Z,0.18
2018-12-13T16:11:29.204Z,0.10
2018-12-13T16:13:16.422Z,0.13
2018-12-13T16:14:46.351Z,0.17
2018-12-13T16:16:16.451Z,0.12
2018-12-13T16:17:52.935Z,0.17
2018-12-13T16:19:22.866Z,0.15
2018-12-13T16:20:52.806Z,0.12
2018-12-13T16:22:22.742Z,0.13
2018-12-13T16:23:52.706Z,0.11
2018-12-13T16:25:22.659Z,0.22
2018-12-13T16:26:52.738Z,0.15
2018-12-13T16:28:22.871Z,0.04
2018-12-13T16:29:53.271Z,0.05
2018-12-13T16:31:23.371Z,0.15
2018-12-13T16:32:53.255Z,0.25
2018-12-13T16:34:23.311Z,0.33
2018-12-13T16:35:53.395Z,0.35
2018-12-13T16:37:23.311Z,0.33
2018-12-13T16:38:53.324Z,0.36
2018-12-13T16:40:23.267Z,0.30
2018-12-13T16:41:53.360Z,0.17
2018-12-13T16:43:23.421Z,0.18
2018-12-13T16:44:55.373Z,0.19
2018-12-13T16:46:25.423Z,0.28
2018-12-13T16:47:55.353Z,0.29
2018-12-13T16:49:25.286Z,0.32
2018-12-13T16:50:55.374Z,0.24
2018-12-13T16:52:32.829Z,0.11
2018-12-13T16:54:03.306Z,0.13
2018-12-13T16:55:34.283Z,0.24
2018-12-13T16:57:04.288Z,0.31
2018-12-13T16:58:34.290Z,0.37
2018-12-13T17:00:04.974Z,0.25
2018-12-13T17:01:34.988Z,0.20
2018-12-13T17:03:16.685Z,0.28
2018-12-13T17:04:46.634Z,0.22
2018-12-13T17:06:16.718Z,0.28
2018-12-13T17:07:46.644Z,0.35
2018-12-13T17:09:16.612Z,0.49
2018-12-13T17:10:47.705Z,0.54
2018-12-13T17:12:17.673Z,0.43
2018-12-13T17:13:47.713Z,0.35
2018-12-13T17:15:17.779Z,0.35
2018-12-13T17:16:47.751Z,0.42
2018-12-13T17:18:17.696Z,0.39
2018-12-13T17:19:47.632Z,0.38
2018-12-13T17:21:17.638Z,0.43
2018-12-13T17:22:47.578Z,0.50
2018-12-13T17:24:17.523Z,0.57
2018-12-13T17:25:49.424Z,0.65
2018-12-13T17:27:19.395Z,0.65
2018-12-13T17:28:49.341Z,0.63
2018-12-13T17:30:19.276Z,0.51
2018-12-13T17:31:49.383Z,0.49
2018-12-13T17:33:19.341Z,0.48
2018-12-13T17:34:49.278Z,0.48
2018-12-13T17:36:19.276Z,0.46
2018-12-13T17:37:49.202Z,0.46
2018-12-13T17:39:19.140Z,0.52
2018-12-13T17:40:49.213Z,0.52
2018-12-13T17:42:19.285Z,0.50
2018-12-13T17:43:49.343Z,0.56
2018-12-13T17:45:19.398Z,0.55
2018-12-13T17:46:49.793Z,0.54
2018-12-13T17:48:19.795Z,0.52
2018-12-13T17:49:49.878Z,0.48
2018-12-13T17:51:20.268Z,0.55
2018-12-13T17:52:50.309Z,0.57
2018-12-13T17:54:20.212Z,0.68
2018-12-13T17:55:50.123Z,0.78
2018-12-13T17:57:20.064Z,0.75
2018-12-13T17:58:50.114Z,0.84
2018-12-13T18:00:20.169Z,0.71
2018-12-13T18:01:50.198Z,0.70
2018-12-13T18:03:20.104Z,0.79
2018-12-13T18:04:50.024Z,0.80
2018-12-13T18:06:20.055Z,0.77
2018-12-13T18:07:50.163Z,0.67
2018-12-13T18:09:20.139Z,0.76
2018-12-13T18:10:50.218Z,0.80
2018-12-13T18:12:20.243Z,0.78
2018-12-13T18:13:50.290Z,0.77
2018-12-13T18:15:20.454Z,0.84
2018-12-13T18:16:50.499Z,0.86
2018-12-13T18:18:20.438Z,0.75
2018-12-13T18:19:50.392Z,0.74
2018-12-13T18:21:20.403Z,0.77
2018-12-13T18:22:50.474Z,0.79
2018-12-13T18:24:20.636Z,0.78
2018-12-13T18:25:50.534Z,0.75
2018-12-13T18:27:20.682Z,0.66
2018-12-13T18:28:50.753Z,0.66
2018-12-13T18:30:20.674Z,0.63
2018-12-13T18:34:10.019Z,0.69
2018-12-13T18:35:40.055Z,0.73
2018-12-13T18:37:10.032Z,0.65
2018-12-13T18:38:39.939Z,0.58
2018-12-13T18:40:09.907Z,0.65
2018-12-13T18:41:39.806Z,0.70
2018-12-13T18:43:09.956Z,0.79
2018-12-13T18:44:39.998Z,0.83
2018-12-13T18:46:10.010Z,0.90
2018-12-13T18:47:39.958Z,0.95
2018-12-13T18:49:28.845Z,0.97
2018-12-13T18:50:58.754Z,1.00
2018-12-13T18:52:28.695Z,1.03
2018-12-13T18:53:58.732Z,0.99
2018-12-13T18:55:28.702Z,0.91
2018-12-13T18:56:58.604Z,0.91
2018-12-13T18:58:28.699Z,0.86
2018-12-13T18:59:58.582Z,0.91
2018-12-13T19:01:28.560Z,0.95
2018-12-13T19:02:58.507Z,0.97
2018-12-13T19:04:28.954Z,1.07
2018-12-13T19:05:58.934Z,1.04
2018-12-13T19:07:29.025Z,0.99
2018-12-13T19:08:59.027Z,0.98
2018-12-13T19:10:29.058Z,0.87
2018-12-13T19:11:58.947Z,0.82
2018-12-13T19:13:29.035Z,0.59
2018-12-13T19:14:59.051Z,0.61
2018-12-13T19:16:39.189Z,0.74
2018-12-13T19:18:09.314Z,0.83
2018-12-13T19:19:39.294Z,0.88
2018-12-13T19:21:09.203Z,0.59
2018-12-13T19:22:39.273Z,0.48
2018-12-13T19:24:09.178Z,0.45
2018-12-13T19:25:39.097Z,0.47
2018-12-13T19:27:09.025Z,0.49
2018-12-13T19:28:39.040Z,0.62
2018-12-13T19:30:09.319Z,0.65
2018-12-13T19:31:39.352Z,0.62
2018-12-13T19:33:29.948Z,0.67
2018-12-13T19:35:00.343Z,0.68
2018-12-13T19:36:30.376Z,0.66
2018-12-13T19:38:00.362Z,0.70
2018-12-13T19:39:30.272Z,0.79
2018-12-13T19:41:00.201Z,0.94
2018-12-13T19:42:30.121Z,0.93
2018-12-13T19:44:00.083Z,0.96
2018-12-13T19:45:30.124Z,1.02
2018-12-13T19:47:08.719Z,0.79
2018-12-13T19:48:38.643Z,0.65
2018-12-13T19:50:09.682Z,0.71
2018-12-13T19:51:40.070Z,0.67
2018-12-13T19:53:10.551Z,0.57
2018-12-13T19:54:40.512Z,0.68
2018-12-13T19:56:10.406Z,0.61
2018-12-13T19:57:41.511Z,0.56
2018-12-13T19:59:11.402Z,0.58
2018-12-13T20:00:41.391Z,0.71
2018-12-13T20:02:11.535Z,0.71
2018-12-13T20:03:41.640Z,0.64
2018-12-13T20:05:11.776Z,0.77
2018-12-13T20:06:41.702Z,0.79
2018-12-13T20:08:11.763Z,0.82
2018-12-13T20:09:41.751Z,0.73
2018-12-13T20:11:11.827Z,0.68
2018-12-13T20:12:41.884Z,0.62
2018-12-13T20:14:11.943Z,0.60
2018-12-13T20:15:41.832Z,0.61
2018-12-13T20:17:11.744Z,0.62
2018-12-13T20:18:41.704Z,0.60